createdAt,value
2023-04-19T00:01:08.902Z,0.50
2023-04-19T00:03:36.339Z,0.50
2023-04-19T00:06:03.636Z,0.50
2023-04-19T00:08:31.839Z,0.50
2023-04-19T00:10:58.845Z,0.50
2023-04-19T00:13:26.103Z,0.60
2023-04-19T00:15:53.062Z,0.52
2023-04-19T00:18:20.063Z,0.50
2023-04-19T00:20:48.833Z,0.60
2023-04-19T00:23:15.910Z,0.50
2023-04-19T00:25:42.916Z,0.52
2023-04-19T00:28:09.861Z,0.60
2023-04-19T00:31:01.960Z,0.60
2023-04-19T00:33:31.345Z,0.60
2023-04-19T00:35:58.315Z,0.57
2023-04-19T00:38:25.775Z,0.60
2023-04-19T00:40:52.746Z,0.50
2023-04-19T00:43:20.034Z,0.50
2023-04-19T00:45:48.416Z,0.50
2023-04-19T00:48:15.725Z,0.50
2023-04-19T00:50:44.784Z,0.50
2023-04-19T00:53:11.997Z,0.50
2023-04-19T00:55:39.790Z,0.60
2023-04-19T00:58:08.854Z,0.60
2023-04-19T01:00:37.301Z,0.57
2023-04-19T01:03:04.744Z,0.50
2023-04-19T01:05:31.882Z,0.60
2023-04-19T01:07:58.912Z,0.57
2023-04-19T01:10:30.084Z,0.50
2023-04-19T01:12:57.083Z,0.60
2023-04-19T01:15:24.111Z,0.55
2023-04-19T01:17:51.380Z,0.50
2023-04-19T01:20:18.410Z,0.60
2023-04-19T01:22:46.750Z,0.60
2023-04-19T01:25:13.744Z,0.60
2023-04-19T01:27:44.479Z,0.60
2023-04-19T01:30:12.024Z,0.50
2023-04-19T01:32:39.142Z,0.57
2023-04-19T01:35:06.643Z,0.60
2023-04-19T01:37:37.415Z,0.52
2023-04-19T01:40:08.440Z,0.50
2023-04-19T01:42:37.043Z,0.60
2023-04-19T01:45:04.502Z,0.60
2023-04-19T01:47:32.677Z,0.60
2023-04-19T01:49:59.705Z,0.50
2023-04-19T01:52:26.934Z,0.50
2023-04-19T01:54:53.898Z,0.60
2023-04-19T01:57:20.936Z,0.60
2023-04-19T01:59:48.043Z,0.57
2023-04-19T02:02:15.240Z,0.60
2023-04-19T02:04:42.350Z,0.60
2023-04-19T02:07:09.377Z,0.60
2023-04-19T02:09:37.346Z,0.60
2023-04-19T02:12:05.663Z,0.60
2023-04-19T02:14:32.926Z,0.50
2023-04-19T02:17:02.950Z,0.60
2023-04-19T02:19:29.957Z,0.57
2023-04-19T02:21:58.047Z,0.57
2023-04-19T02:24:25.349Z,0.50
2023-04-19T02:26:53.556Z,0.60
2023-04-19T02:29:21.162Z,0.50
2023-04-19T02:31:48.443Z,0.60
2023-04-19T02:34:16.024Z,0.60
2023-04-19T02:36:43.421Z,0.60
2023-04-19T02:39:10.373Z,0.60
2023-04-19T02:41:39.196Z,0.60
2023-04-19T02:44:06.298Z,0.63
2023-04-19T02:46:34.899Z,0.60
2023-04-19T02:49:04.804Z,0.60
2023-04-19T02:51:33.187Z,0.60
2023-04-19T02:54:00.097Z,0.70
2023-04-19T02:56:27.219Z,0.60
2023-04-19T02:58:55.185Z,0.60
2023-04-19T03:01:24.323Z,0.60
2023-04-19T03:03:54.182Z,0.60
2023-04-19T03:06:21.561Z,0.60
2023-04-19T03:08:48.852Z,0.60
2023-04-19T03:11:18.440Z,0.60
2023-04-19T03:13:50.433Z,0.65
2023-04-19T03:16:19.257Z,0.70
2023-04-19T03:18:50.195Z,0.60
2023-04-19T03:21:21.564Z,0.65
2023-04-19T03:23:54.473Z,0.60
2023-04-19T03:26:22.327Z,0.60
2023-04-19T03:28:53.017Z,0.60
2023-04-19T03:31:46.391Z,0.60
2023-04-19T03:34:15.218Z,0.60
2023-04-19T03:36:45.884Z,0.70
2023-04-19T03:39:21.979Z,0.60
2023-04-19T03:41:53.434Z,0.70
2023-04-19T03:44:36.059Z,0.63
2023-04-19T03:47:05.540Z,0.60
2023-04-19T03:49:39.423Z,0.70
2023-04-19T03:52:07.382Z,0.68
2023-04-19T03:54:35.053Z,0.70
2023-04-19T03:57:04.695Z,0.70
2023-04-19T03:59:33.366Z,0.60
2023-04-19T04:02:00.621Z,0.60
2023-04-19T04:04:28.020Z,0.60
2023-04-19T04:06:55.977Z,0.70
2023-04-19T04:09:23.218Z,0.60
2023-04-19T04:11:51.089Z,0.60
2023-04-19T04:14:18.212Z,0.60
2023-04-19T04:16:46.926Z,0.60
2023-04-19T04:19:16.407Z,0.60
2023-04-19T04:21:43.689Z,0.68
2023-04-19T04:24:11.953Z,0.60
2023-04-19T04:26:46.219Z,0.60
2023-04-19T04:29:22.968Z,0.60
2023-04-19T04:31:52.604Z,0.60
2023-04-19T04:34:24.733Z,0.60
2023-04-19T04:36:59.393Z,0.60
2023-04-19T04:39:26.824Z,0.60
2023-04-19T04:41:53.948Z,0.60
2023-04-19T04:44:20.985Z,0.60
2023-04-19T04:46:50.777Z,0.60
2023-04-19T04:49:24.953Z,0.65
2023-04-19T04:51:52.146Z,0.60
2023-04-19T04:54:23.531Z,0.60
2023-04-19T04:56:51.190Z,0.50
2023-04-19T04:59:21.148Z,0.60
2023-04-19T05:01:51.524Z,0.60
2023-04-19T05:04:19.829Z,0.60
2023-04-19T05:06:46.950Z,0.60
2023-04-19T05:09:19.821Z,0.60
2023-04-19T05:11:49.285Z,0.60
2023-04-19T05:14:16.554Z,0.50
2023-04-19T05:16:43.658Z,0.60
2023-04-19T05:19:11.701Z,0.60
2023-04-19T05:21:44.960Z,0.60
2023-04-19T05:24:13.738Z,0.60
2023-04-19T05:26:45.393Z,0.60
2023-04-19T05:29:12.612Z,0.60
2023-04-19T05:31:52.194Z,0.60
2023-04-19T05:34:27.043Z,0.50
2023-04-19T05:36:56.327Z,0.60
2023-04-19T05:39:23.420Z,0.60
2023-04-19T05:41:51.891Z,0.65
2023-04-19T05:44:19.080Z,0.60
2023-04-19T05:46:46.215Z,0.60
2023-04-19T05:49:17.848Z,0.60
2023-04-19T05:52:02.078Z,0.60
2023-04-19T05:54:50.941Z,0.60
2023-04-19T05:57:17.993Z,0.60
2023-04-19T05:59:45.036Z,0.60
2023-04-19T06:02:20.467Z,0.60
2023-04-19T06:04:48.016Z,0.50
2023-04-19T06:07:27.556Z,0.50
2023-04-19T06:09:59.869Z,0.50
2023-04-19T06:12:27.217Z,0.60
2023-04-19T06:14:54.625Z,0.60
2023-04-19T06:17:25.359Z,0.50
2023-04-19T06:19:53.603Z,0.60
2023-04-19T06:22:21.443Z,0.52
2023-04-19T06:24:49.968Z,0.50
2023-04-19T06:27:17.281Z,0.60
2023-04-19T06:29:44.416Z,0.52
2023-04-19T06:32:11.840Z,0.50
2023-04-19T06:34:40.329Z,0.60
2023-04-19T06:37:07.630Z,0.50
2023-04-19T06:39:34.889Z,0.60
2023-04-19T06:42:05.113Z,0.50
2023-04-19T06:44:33.262Z,0.50
2023-04-19T06:47:06.139Z,0.60
2023-04-19T06:49:35.697Z,0.50
2023-04-19T06:52:05.638Z,0.50
2023-04-19T06:54:32.596Z,0.50
2023-04-19T06:56:59.872Z,0.50
2023-04-19T06:59:28.413Z,0.50
2023-04-19T07:01:57.688Z,0.50
2023-04-19T07:04:27.014Z,0.50
2023-04-19T07:06:55.107Z,0.50
2023-04-19T07:09:22.485Z,0.55
2023-04-19T07:11:51.427Z,0.50
2023-04-19T07:14:19.469Z,0.50
2023-04-19T07:16:50.989Z,0.50
2023-04-19T07:19:22.931Z,0.60
2023-04-19T07:21:50.709Z,0.50
2023-04-19T07:24:17.991Z,0.50
2023-04-19T07:26:45.225Z,0.50
2023-04-19T07:29:15.522Z,0.60
2023-04-19T07:31:43.149Z,0.60
2023-04-19T07:34:13.008Z,0.60
2023-04-19T07:36:40.143Z,0.60
2023-04-19T07:39:07.153Z,0.60
2023-04-19T07:41:38.286Z,0.55
2023-04-19T07:44:05.646Z,0.55
2023-04-19T07:46:32.757Z,0.60
2023-04-19T07:49:00.000Z,0.60
2023-04-19T07:51:27.711Z,0.50
2023-04-19T07:53:54.886Z,0.60
2023-04-19T07:56:22.673Z,0.60
2023-04-19T07:59:04.444Z,0.60
2023-04-19T08:02:01.335Z,0.50
2023-04-19T08:04:30.591Z,0.60
2023-04-19T08:06:57.790Z,0.60
2023-04-19T08:09:24.847Z,0.52
2023-04-19T08:11:54.207Z,0.60
2023-04-19T08:14:34.929Z,0.60
2023-04-19T08:17:24.049Z,0.60
2023-04-19T08:19:53.259Z,0.50
2023-04-19T08:22:21.790Z,0.60
2023-04-19T08:24:52.328Z,0.50
2023-04-19T08:27:19.992Z,0.60
2023-04-19T08:29:47.090Z,0.60
2023-04-19T08:32:14.121Z,0.50
2023-04-19T08:34:44.308Z,0.60
2023-04-19T08:37:11.489Z,0.60
2023-04-19T08:39:39.112Z,0.50
2023-04-19T08:42:24.619Z,0.60
2023-04-19T08:45:26.017Z,0.60
2023-04-19T08:47:59.574Z,0.50
2023-04-19T08:50:35.824Z,0.50
2023-04-19T08:55:55.171Z,0.60
2023-04-19T08:58:45.883Z,0.60
2023-04-19T09:01:33.870Z,0.60
2023-04-19T09:04:21.029Z,0.60
2023-04-19T09:06:49.876Z,0.60
2023-04-19T09:11:52.704Z,0.60
2023-04-19T09:14:22.471Z,0.60
2023-04-19T09:16:53.697Z,0.60
2023-04-19T09:19:25.193Z,0.50
2023-04-19T09:21:56.557Z,0.60
2023-04-19T09:27:12.561Z,0.60
2023-04-19T09:29:56.081Z,0.60
2023-04-19T09:32:24.469Z,0.60
2023-04-19T09:35:01.492Z,0.57
2023-04-19T09:37:53.374Z,0.50
2023-04-19T09:40:25.171Z,0.60
2023-04-19T09:48:16.072Z,0.50
2023-04-19T09:51:04.679Z,0.60
2023-04-19T09:53:36.928Z,0.60
2023-04-19T09:56:14.231Z,0.50
2023-04-19T09:58:50.788Z,0.50
2023-04-19T10:01:20.376Z,0.50
2023-04-19T10:03:50.311Z,0.50
2023-04-19T10:08:51.506Z,0.50
2023-04-19T10:11:26.858Z,0.50
2023-04-19T10:13:56.662Z,0.50
2023-04-19T10:16:23.994Z,0.40
2023-04-19T10:18:52.518Z,0.60
2023-04-19T10:21:20.834Z,0.50
2023-04-19T10:23:48.872Z,0.60
2023-04-19T10:26:16.281Z,0.50
2023-04-19T10:28:43.351Z,0.50
2023-04-19T10:31:16.199Z,0.50
2023-04-19T10:33:45.497Z,0.40
2023-04-19T10:36:18.612Z,0.50
2023-04-19T10:38:48.244Z,0.50
2023-04-19T10:41:17.935Z,0.57
2023-04-19T10:43:47.047Z,0.50
2023-04-19T10:46:24.575Z,0.50
2023-04-19T10:48:58.484Z,0.50
2023-04-19T10:51:32.823Z,0.50
2023-04-19T10:54:04.411Z,0.50
2023-04-19T10:56:34.699Z,0.50
2023-04-19T10:59:08.187Z,0.50
2023-04-19T11:01:45.534Z,0.50
2023-04-19T11:04:16.974Z,0.50
2023-04-19T11:06:53.558Z,0.50
2023-04-19T11:09:25.264Z,0.50
2023-04-19T11:11:54.412Z,0.50
2023-04-19T11:14:24.484Z,0.40
2023-04-19T11:16:51.708Z,0.50
2023-04-19T11:19:21.877Z,0.50
2023-04-19T11:21:50.229Z,0.50
2023-04-19T11:24:19.159Z,0.40
2023-04-19T11:26:47.964Z,0.47
2023-04-19T11:29:15.771Z,0.50
2023-04-19T11:31:46.766Z,0.40
2023-04-19T11:34:17.102Z,0.40
2023-04-19T11:36:51.903Z,0.40
2023-04-19T11:39:21.897Z,0.40
2023-04-19T11:41:49.160Z,0.40
2023-04-19T11:44:22.736Z,0.50
2023-04-19T11:47:05.553Z,0.47
2023-04-19T11:49:34.477Z,0.40
2023-04-19T11:52:05.615Z,0.40
2023-04-19T11:54:33.864Z,0.45
2023-04-19T11:57:05.861Z,0.20
2023-04-19T11:59:35.402Z,0.20
2023-04-19T12:02:12.832Z,0.50
2023-04-19T12:04:41.077Z,0.50
2023-04-19T12:07:10.722Z,0.30
2023-04-19T12:09:39.562Z,0.30
2023-04-19T12:12:06.977Z,0.30
2023-04-19T12:14:35.605Z,0.20
2023-04-19T12:17:08.566Z,0.20
2023-04-19T12:19:46.195Z,0.30
2023-04-19T12:22:20.458Z,0.30
2023-04-19T12:24:51.600Z,0.30
2023-04-19T12:27:18.909Z,0.30
2023-04-19T12:29:46.334Z,0.80
2023-04-19T12:32:16.467Z,0.60
2023-04-19T12:34:44.026Z,0.60
2023-04-19T12:37:20.225Z,0.60
2023-04-19T12:39:47.565Z,0.50
2023-04-19T12:42:14.564Z,0.20
2023-04-19T12:44:41.522Z,0.20
2023-04-19T12:47:08.542Z,0.50
2023-04-19T12:49:35.715Z,0.20
2023-04-19T12:52:02.657Z,0.20
2023-04-19T12:54:31.948Z,0.20
2023-04-19T12:57:04.296Z,0.30
2023-04-19T12:59:31.268Z,0.30
2023-04-19T13:01:58.373Z,0.30
2023-04-19T13:04:26.201Z,0.30
2023-04-19T13:06:54.379Z,0.30
2023-04-19T13:09:29.727Z,0.50
2023-04-19T13:12:00.186Z,0.60
2023-04-19T13:14:27.740Z,0.30
2023-04-19T13:16:55.102Z,0.30
2023-04-19T13:19:25.214Z,0.60
2023-04-19T13:21:52.333Z,0.52
2023-04-19T13:24:19.527Z,0.50
2023-04-19T13:26:46.739Z,0.40
2023-04-19T13:29:13.892Z,0.30
2023-04-19T13:31:43.723Z,0.50
2023-04-19T13:34:11.301Z,0.60
2023-04-19T13:36:39.913Z,0.57
2023-04-19T13:39:08.476Z,0.35
2023-04-19T13:41:35.885Z,0.50
2023-04-19T13:44:02.848Z,0.50
2023-04-19T13:46:29.792Z,0.50
2023-04-19T13:48:56.914Z,0.40
2023-04-19T13:51:33.177Z,0.40
2023-04-19T13:54:08.850Z,0.40
2023-04-19T13:56:54.774Z,0.40
2023-04-19T13:59:40.328Z,0.40
2023-04-19T14:02:07.906Z,0.40
2023-04-19T14:04:37.754Z,0.40
2023-04-19T14:07:09.081Z,0.30
2023-04-19T14:09:38.784Z,0.40
2023-04-19T14:12:08.885Z,0.40
2023-04-19T14:15:00.056Z,0.40
2023-04-19T14:17:45.850Z,0.40
2023-04-19T14:20:51.100Z,0.30
2023-04-19T14:23:55.596Z,0.30
2023-04-19T14:26:28.454Z,0.30
2023-04-19T14:28:57.989Z,0.40
2023-04-19T14:31:28.376Z,0.32
2023-04-19T14:34:34.433Z,0.20
2023-04-19T14:37:01.788Z,0.20
2023-04-19T14:39:47.931Z,0.20
2023-04-19T14:42:16.157Z,0.20
2023-04-19T14:44:44.611Z,0.40
2023-04-19T14:47:12.103Z,0.40
2023-04-19T14:49:39.215Z,0.40
2023-04-19T14:52:24.861Z,0.30
2023-04-19T14:54:52.149Z,0.30
2023-04-19T14:57:22.138Z,0.50
2023-04-19T14:59:49.597Z,0.40
2023-04-19T15:02:17.137Z,0.40
2023-04-19T15:04:44.607Z,0.40
2023-04-19T15:07:11.838Z,0.30
2023-04-19T15:09:38.974Z,0.30
2023-04-19T15:12:06.700Z,0.30
2023-04-19T15:14:34.324Z,0.30
2023-04-19T15:17:01.651Z,0.32
2023-04-19T15:19:29.944Z,0.20
2023-04-19T15:22:33.978Z,0.30
2023-04-19T15:25:02.624Z,0.20
2023-04-19T15:27:32.986Z,0.30
2023-04-19T15:30:00.159Z,0.30
2023-04-19T15:32:29.114Z,0.30
2023-04-19T15:34:56.799Z,0.30
2023-04-19T15:37:24.043Z,0.30
2023-04-19T15:40:09.521Z,0.30
2023-04-19T15:42:39.054Z,0.30
2023-04-19T15:45:07.452Z,0.30
2023-04-19T15:47:53.556Z,0.30
2023-04-19T15:50:39.383Z,0.40
2023-04-19T15:53:09.799Z,0.30
2023-04-19T15:55:36.805Z,0.40
2023-04-19T15:58:04.616Z,0.30
2023-04-19T16:00:31.782Z,0.30
2023-04-19T16:02:59.109Z,0.30
2023-04-19T16:05:27.366Z,0.30
2023-04-19T16:08:08.532Z,0.30
2023-04-19T16:10:38.172Z,0.30
2023-04-19T16:13:05.975Z,0.30
2023-04-19T16:15:34.645Z,0.30
2023-04-19T16:18:20.953Z,0.38
2023-04-19T16:20:48.362Z,0.30
2023-04-19T16:23:35.561Z,0.30
2023-04-19T16:26:22.290Z,0.40
2023-04-19T16:29:10.277Z,0.30
2023-04-19T16:31:37.684Z,0.40
2023-04-19T16:34:04.928Z,0.32
2023-04-19T16:36:50.239Z,0.38
2023-04-19T16:39:19.863Z,0.30
2023-04-19T16:41:47.012Z,0.30
2023-04-19T16:44:14.222Z,0.40
2023-04-19T16:46:44.156Z,0.30
2023-04-19T16:49:29.898Z,0.40
2023-04-19T16:51:59.796Z,0.30
2023-04-19T16:54:27.107Z,0.40
2023-04-19T16:56:54.298Z,0.30
2023-04-19T16:59:24.499Z,0.40
2023-04-19T17:01:56.995Z,0.40
2023-04-19T17:06:55.651Z,0.30
2023-04-19T17:09:22.716Z,0.40
2023-04-19T17:11:49.798Z,0.40
2023-04-19T17:14:17.093Z,0.40
2023-04-19T17:16:44.546Z,0.40
2023-04-19T17:19:11.613Z,0.40
2023-04-19T17:21:44.899Z,0.40
2023-04-19T17:24:34.853Z,0.30
2023-04-19T17:27:03.191Z,0.40
2023-04-19T17:29:30.241Z,0.38
2023-04-19T17:32:16.408Z,0.40
2023-04-19T17:34:45.398Z,0.40
2023-04-19T17:37:13.354Z,0.30
2023-04-19T17:39:43.058Z,0.35
2023-04-19T17:42:11.366Z,0.40
2023-04-19T17:44:59.050Z,0.40
2023-04-19T17:47:45.157Z,0.40
2023-04-19T17:50:13.639Z,0.40
2023-04-19T17:52:40.808Z,0.40
2023-04-19T17:55:11.730Z,0.40
2023-04-19T17:57:38.834Z,0.40
2023-04-19T18:00:12.321Z,0.40
2023-04-19T18:02:40.867Z,0.40
2023-04-19T18:05:32.046Z,0.40
2023-04-19T18:08:03.844Z,0.40
2023-04-19T18:10:31.146Z,0.40
2023-04-19T18:12:58.497Z,0.40
2023-04-19T18:15:25.932Z,0.40
2023-04-19T18:17:53.135Z,0.40
2023-04-19T18:20:21.266Z,0.40
2023-04-19T18:23:07.241Z,0.40
2023-04-19T18:25:38.346Z,0.40
2023-04-19T18:28:06.657Z,0.40
2023-04-19T18:30:37.886Z,0.40
2023-04-19T18:33:05.119Z,0.40
2023-04-19T18:35:50.894Z,0.40
2023-04-19T18:38:19.061Z,0.40
2023-04-19T18:41:04.718Z,0.45
2023-04-19T18:43:32.638Z,0.45
2023-04-19T18:46:01.483Z,0.40
2023-04-19T18:49:08.806Z,0.40
2023-04-19T18:51:37.783Z,0.40
2023-04-19T18:54:04.955Z,0.40
2023-04-19T18:57:10.093Z,0.40
2023-04-19T18:59:41.122Z,0.40
2023-04-19T19:02:08.899Z,0.40
2023-04-19T19:04:51.131Z,0.40
2023-04-19T19:07:34.977Z,0.40
2023-04-19T19:10:18.323Z,0.50
2023-04-19T19:12:48.240Z,0.50
2023-04-19T19:15:36.548Z,0.40
2023-04-19T19:18:22.344Z,0.50
2023-04-19T19:21:08.997Z,0.40
2023-04-19T19:23:42.136Z,0.47
2023-04-19T19:26:12.579Z,0.50
2023-04-19T19:28:40.276Z,0.40
2023-04-19T19:31:07.311Z,0.50
2023-04-19T19:33:34.331Z,0.40
2023-04-19T19:36:19.947Z,0.40
2023-04-19T19:38:49.902Z,0.40
2023-04-19T19:43:49.639Z,0.50
2023-04-19T19:46:16.799Z,0.50
2023-04-19T19:48:45.235Z,0.50
2023-04-19T19:51:42.286Z,0.40
2023-04-19T19:54:00.248Z,0.50
2023-04-19T19:56:30.077Z,0.40
2023-04-19T19:58:57.771Z,0.50
2023-04-19T20:01:24.921Z,0.40
2023-04-19T20:03:57.250Z,0.50
2023-04-19T20:08:57.503Z,0.50
2023-04-19T20:11:42.999Z,0.50
2023-04-19T20:14:10.027Z,0.40
2023-04-19T20:16:37.626Z,0.50
2023-04-19T20:19:42.325Z,0.40
2023-04-19T20:22:09.892Z,0.50
2023-04-19T20:24:55.554Z,0.50
2023-04-19T20:27:22.719Z,0.50
2023-04-19T20:29:51.723Z,0.50
2023-04-19T20:32:21.525Z,0.50
2023-04-19T20:34:48.548Z,0.50
2023-04-19T20:37:18.542Z,0.50
2023-04-19T20:39:45.878Z,0.40
2023-04-19T20:42:12.894Z,0.45
2023-04-19T20:44:39.932Z,0.50
2023-04-19T20:47:09.331Z,0.50
2023-04-19T20:49:36.529Z,0.50
2023-04-19T20:52:22.187Z,0.50
2023-04-19T20:54:54.061Z,0.50
2023-04-19T20:57:21.102Z,0.50
2023-04-19T20:59:49.156Z,0.50
2023-04-19T21:02:16.324Z,0.50
2023-04-19T21:04:43.414Z,0.50
2023-04-19T21:07:10.833Z,0.50
2023-04-19T21:09:56.628Z,0.50
2023-04-19T21:12:24.623Z,0.50
2023-04-19T21:14:52.837Z,0.50
2023-04-19T21:17:20.745Z,0.50
2023-04-19T21:19:47.941Z,0.50
2023-04-19T21:22:35.101Z,0.50
2023-04-19T21:25:02.967Z,0.50
2023-04-19T21:27:34.190Z,0.50
2023-04-19T21:30:01.245Z,0.50
2023-04-19T21:32:34.481Z,0.50
2023-04-19T21:35:02.132Z,0.50
2023-04-19T21:37:31.298Z,0.50
2023-04-19T21:39:58.590Z,0.50
2023-04-19T21:42:28.139Z,0.50
2023-04-19T21:44:55.269Z,0.50
2023-04-19T21:47:23.344Z,0.50
2023-04-19T21:49:51.575Z,0.50
2023-04-19T21:52:18.802Z,0.50
2023-04-19T21:54:46.051Z,0.50
2023-04-19T21:57:13.028Z,0.50
2023-04-19T21:59:40.832Z,0.50
2023-04-19T22:02:08.545Z,0.50
2023-04-19T22:04:36.758Z,0.50
2023-04-19T22:07:03.745Z,0.50
2023-04-19T22:09:31.127Z,0.50
2023-04-19T22:11:58.372Z,0.50
2023-04-19T22:14:25.735Z,0.50
2023-04-19T22:16:55.873Z,0.50
2023-04-19T22:19:26.088Z,0.50
2023-04-19T22:21:55.350Z,0.50
2023-04-19T22:24:22.680Z,0.50
2023-04-19T22:26:51.071Z,0.60
2023-04-19T22:29:18.435Z,0.50
2023-04-19T22:31:45.741Z,0.50
2023-04-19T22:34:12.767Z,0.60
2023-04-19T22:36:40.523Z,0.50
2023-04-19T22:39:07.878Z,0.57
2023-04-19T22:41:34.911Z,0.50
2023-04-19T22:44:03.190Z,0.50
2023-04-19T22:46:30.782Z,0.50
2023-04-19T22:48:58.052Z,0.50
2023-04-19T22:51:25.159Z,0.60
2023-04-19T22:53:52.228Z,0.50
2023-04-19T22:56:23.475Z,0.50
2023-04-19T22:58:50.529Z,0.60
2023-04-19T23:01:17.606Z,0.60
2023-04-19T23:03:46.545Z,0.60
2023-04-19T23:06:13.728Z,0.50
2023-04-19T23:08:41.507Z,0.50
2023-04-19T23:11:10.238Z,0.60
2023-04-19T23:13:41.543Z,0.50
2023-04-19T23:16:12.169Z,0.50
2023-04-19T23:18:40.342Z,0.55
2023-04-19T23:21:07.468Z,0.50
2023-04-19T23:23:34.425Z,0.50
2023-04-19T23:26:01.468Z,0.57
2023-04-19T23:28:33.259Z,0.50
2023-04-19T23:31:00.729Z,0.50
2023-04-19T23:33:27.814Z,0.50
2023-04-19T23:35:54.960Z,0.60
2023-04-19T23:38:22.304Z,0.50
2023-04-19T23:40:49.430Z,0.50
2023-04-19T23:43:16.445Z,0.50
2023-04-19T23:45:46.527Z,0.60
2023-04-19T23:48:17.542Z,0.60
2023-04-19T23:50:47.485Z,0.60
2023-04-19T23:53:15.279Z,0.60
2023-04-19T23:55:42.272Z,0.60
2023-04-19T23:58:15.488Z,0.60
